createdAt,value
2023-05-15T00:00:22.582Z,0.00
2023-05-15T00:01:22.561Z,0.00
2023-05-15T00:02:22.777Z,0.00
2023-05-15T00:03:21.916Z,0.00
2023-05-15T00:04:21.901Z,0.00
2023-05-15T00:05:21.974Z,0.00
2023-05-15T00:06:21.834Z,0.00
2023-05-15T00:07:21.828Z,0.00
2023-05-15T00:08:22.509Z,0.00
2023-05-15T00:09:21.807Z,0.00
2023-05-15T00:10:21.820Z,0.00
2023-05-15T00:11:21.804Z,0.00
2023-05-15T00:12:21.770Z,0.00
2023-05-15T00:13:22.444Z,0.00
2023-05-15T00:14:22.652Z,0.00
2023-05-15T00:15:21.747Z,0.00
2023-05-15T00:16:22.444Z,0.00
2023-05-15T00:17:21.722Z,0.00
2023-05-15T00:18:21.743Z,0.00
2023-05-15T00:19:22.379Z,0.00
2023-05-15T00:20:21.684Z,0.00
2023-05-15T00:21:21.682Z,0.00
2023-05-15T00:22:21.663Z,0.00
2023-05-15T00:23:21.656Z,0.00
2023-05-15T00:24:22.309Z,0.00
2023-05-15T00:25:21.629Z,0.00
2023-05-15T00:26:21.619Z,0.00
2023-05-15T00:27:21.599Z,0.00
2023-05-15T00:28:21.618Z,0.00
2023-05-15T00:29:22.251Z,0.00
2023-05-15T00:30:22.264Z,0.00
2023-05-15T00:31:22.269Z,0.00
2023-05-15T00:32:21.602Z,0.00
2023-05-15T00:33:21.561Z,0.00
2023-05-15T00:34:21.541Z,0.00
2023-05-15T00:35:21.551Z,0.00
2023-05-15T00:36:22.200Z,0.00
2023-05-15T00:37:21.498Z,0.00
2023-05-15T00:38:22.167Z,0.00
2023-05-15T00:39:22.170Z,0.00
2023-05-15T00:40:21.496Z,0.00
2023-05-15T00:41:21.462Z,0.00
2023-05-15T00:42:22.129Z,0.00
2023-05-15T00:43:21.454Z,0.00
2023-05-15T00:44:21.434Z,0.00
2023-05-15T00:45:22.141Z,0.00
2023-05-15T00:46:22.369Z,0.00
2023-05-15T00:47:21.445Z,0.00
2023-05-15T00:48:21.383Z,0.00
2023-05-15T00:49:21.383Z,0.00
2023-05-15T00:50:22.055Z,0.00
2023-05-15T00:51:22.049Z,0.00
2023-05-15T00:52:21.360Z,0.00
2023-05-15T00:53:22.010Z,0.00
2023-05-15T00:54:22.010Z,0.00
2023-05-15T00:55:21.314Z,0.00
2023-05-15T00:56:21.322Z,0.00
2023-05-15T00:57:21.319Z,0.00
2023-05-15T00:58:21.296Z,0.00
2023-05-15T00:59:21.251Z,0.00
2023-05-15T01:00:21.998Z,0.00
2023-05-15T01:01:21.984Z,0.00
2023-05-15T01:02:21.959Z,0.00
2023-05-15T01:03:22.212Z,0.00
2023-05-15T01:04:22.138Z,0.00
2023-05-15T01:05:21.968Z,0.00
2023-05-15T01:06:21.877Z,0.00
2023-05-15T01:07:21.876Z,0.00
2023-05-15T01:08:21.860Z,0.00
2023-05-15T01:09:21.835Z,0.00
2023-05-15T01:10:22.129Z,0.00
2023-05-15T01:11:22.096Z,0.00
2023-05-15T01:12:21.117Z,0.00
2023-05-15T01:13:22.072Z,0.00
2023-05-15T01:14:22.143Z,0.00
2023-05-15T01:15:21.809Z,0.00
2023-05-15T01:16:21.774Z,0.00
2023-05-15T01:17:21.065Z,0.00
2023-05-15T01:18:21.120Z,0.00
2023-05-15T01:19:21.279Z,0.00
2023-05-15T01:20:21.709Z,0.00
2023-05-15T01:21:21.962Z,0.00
2023-05-15T01:22:21.692Z,0.00
2023-05-15T01:23:21.943Z,0.00
2023-05-15T01:24:21.665Z,0.00
2023-05-15T01:25:21.726Z,0.00
2023-05-15T01:26:21.650Z,0.00
2023-05-15T01:27:21.912Z,0.00
2023-05-15T01:28:21.899Z,0.00
2023-05-15T01:29:21.601Z,0.00
2023-05-15T01:30:21.886Z,0.00
2023-05-15T01:31:21.870Z,0.00
2023-05-15T01:32:21.709Z,0.00
2023-05-15T01:33:21.552Z,0.00
2023-05-15T01:34:21.599Z,0.00
2023-05-15T01:35:21.822Z,0.00
2023-05-15T01:36:21.815Z,0.00
2023-05-15T01:37:21.534Z,0.00
2023-05-15T01:38:21.807Z,0.00
2023-05-15T01:39:21.795Z,0.00
2023-05-15T01:40:21.756Z,0.00
2023-05-15T01:41:21.498Z,0.00
2023-05-15T01:42:21.729Z,0.00
2023-05-15T01:43:21.739Z,0.00
2023-05-15T01:44:21.707Z,0.00
2023-05-15T01:45:23.022Z,0.00
2023-05-15T01:46:21.481Z,0.00
2023-05-15T01:47:21.754Z,0.00
2023-05-15T01:48:21.391Z,0.00
2023-05-15T01:49:21.657Z,0.00
2023-05-15T01:50:21.399Z,0.00
2023-05-15T01:51:21.378Z,0.00
2023-05-15T01:52:21.349Z,0.00
2023-05-15T01:53:21.363Z,0.00
2023-05-15T01:54:21.609Z,0.00
2023-05-15T01:55:21.378Z,0.00
2023-05-15T01:56:21.590Z,0.00
2023-05-15T01:57:21.294Z,0.00
2023-05-15T01:58:21.567Z,0.00
2023-05-15T01:59:21.545Z,0.00
2023-05-15T02:00:21.288Z,0.00
2023-05-15T02:01:21.575Z,0.00
2023-05-15T02:02:20.593Z,0.00
2023-05-15T02:03:20.614Z,0.00
2023-05-15T02:04:20.548Z,0.00
2023-05-15T02:05:21.478Z,0.00
2023-05-15T02:06:20.543Z,0.00
2023-05-15T02:07:20.548Z,0.00
2023-05-15T02:08:20.498Z,0.00
2023-05-15T02:09:20.488Z,0.00
2023-05-15T02:10:20.511Z,0.00
2023-05-15T02:11:20.497Z,0.00
2023-05-15T02:12:21.408Z,0.00
2023-05-15T02:13:22.394Z,0.00
2023-05-15T02:14:21.387Z,0.00
2023-05-15T02:15:21.096Z,0.00
2023-05-15T02:16:21.505Z,0.00
2023-05-15T02:17:21.107Z,0.00
2023-05-15T02:18:21.087Z,0.00
2023-05-15T02:19:20.391Z,0.00
2023-05-15T02:20:21.069Z,0.00
2023-05-15T02:21:21.047Z,0.00
2023-05-15T02:22:20.358Z,0.00
2023-05-15T02:23:21.266Z,0.00
2023-05-15T02:24:21.021Z,0.00
2023-05-15T02:25:22.320Z,0.00
2023-05-15T02:26:20.995Z,0.00
2023-05-15T02:27:20.998Z,0.00
2023-05-15T02:28:20.976Z,0.00
2023-05-15T02:29:20.967Z,0.00
2023-05-15T02:30:20.970Z,0.00
2023-05-15T02:31:23.054Z,0.00
2023-05-15T02:32:20.232Z,0.00
2023-05-15T02:33:20.926Z,0.00
2023-05-15T02:34:20.891Z,0.00
2023-05-15T02:35:20.894Z,0.00
2023-05-15T02:36:20.216Z,0.00
2023-05-15T02:37:20.879Z,0.00
2023-05-15T02:38:20.848Z,0.00
2023-05-15T02:39:20.186Z,0.00
2023-05-15T02:40:20.848Z,0.00
2023-05-15T02:41:20.850Z,0.00
2023-05-15T02:42:20.842Z,0.00
2023-05-15T02:43:20.803Z,0.00
2023-05-15T02:44:20.811Z,0.00
2023-05-15T02:45:20.119Z,0.00
2023-05-15T02:46:20.218Z,0.00
2023-05-15T02:47:20.768Z,0.00
2023-05-15T02:48:20.739Z,0.00
2023-05-15T02:49:20.752Z,0.00
2023-05-15T02:50:20.739Z,0.00
2023-05-15T02:51:20.049Z,0.00
2023-05-15T02:52:21.006Z,0.00
2023-05-15T02:53:20.690Z,0.00
2023-05-15T02:54:21.947Z,0.00
2023-05-15T02:55:19.991Z,0.00
2023-05-15T02:56:20.667Z,0.00
2023-05-15T02:57:19.995Z,0.00
2023-05-15T02:58:19.967Z,0.00
2023-05-15T02:59:20.653Z,0.00
2023-05-15T03:00:19.936Z,4.00
2023-05-15T03:01:19.976Z,4.00
2023-05-15T03:02:20.618Z,4.00
2023-05-15T03:03:19.974Z,0.00
2023-05-15T03:04:20.608Z,0.00
2023-05-15T03:05:20.572Z,4.00
2023-05-15T03:06:19.934Z,4.00
2023-05-15T03:07:20.529Z,4.00
2023-05-15T03:08:19.850Z,4.00
2023-05-15T03:09:20.784Z,4.00
2023-05-15T03:10:20.775Z,4.00
2023-05-15T03:11:21.350Z,4.00
2023-05-15T03:12:20.485Z,8.00
2023-05-15T03:13:20.479Z,8.00
2023-05-15T03:14:19.792Z,8.00
2023-05-15T03:15:19.776Z,8.00
2023-05-15T03:16:20.452Z,12.00
2023-05-15T03:17:20.437Z,12.00
2023-05-15T03:18:19.866Z,12.00
2023-05-15T03:19:19.729Z,20.00
2023-05-15T03:20:20.382Z,20.00
2023-05-15T03:21:20.371Z,24.00
2023-05-15T03:22:20.380Z,24.00
2023-05-15T03:23:20.425Z,28.00
2023-05-15T03:24:19.686Z,28.00
2023-05-15T03:25:19.710Z,28.00
2023-05-15T03:26:20.337Z,32.00
2023-05-15T03:27:20.325Z,36.00
2023-05-15T03:28:20.320Z,40.00
2023-05-15T03:29:19.620Z,44.00
2023-05-15T03:30:20.346Z,48.00
2023-05-15T03:31:19.657Z,52.00
2023-05-15T03:32:20.265Z,52.00
2023-05-15T03:33:19.573Z,52.00
2023-05-15T03:34:20.226Z,56.00
2023-05-15T03:35:20.244Z,56.00
2023-05-15T03:36:19.622Z,64.00
2023-05-15T03:37:20.215Z,68.00
2023-05-15T03:38:20.205Z,76.00
2023-05-15T03:39:20.197Z,80.00
2023-05-15T03:40:20.195Z,88.00
2023-05-15T03:41:19.494Z,96.00
2023-05-15T03:42:19.487Z,96.00
2023-05-15T03:43:19.471Z,100.00
2023-05-15T03:44:20.130Z,104.00
2023-05-15T03:45:19.460Z,112.00
2023-05-15T03:46:20.211Z,108.00
2023-05-15T03:47:19.425Z,116.00
2023-05-15T03:48:20.073Z,116.00
2023-05-15T03:49:19.447Z,120.00
2023-05-15T03:50:19.377Z,136.00
2023-05-15T03:51:20.068Z,148.00
2023-05-15T03:52:20.060Z,156.00
2023-05-15T03:53:20.059Z,180.00
2023-05-15T03:54:19.341Z,196.00
2023-05-15T03:55:20.765Z,212.00
2023-05-15T03:56:19.322Z,220.00
2023-05-15T03:57:20.053Z,216.00
2023-05-15T03:58:19.395Z,224.00
2023-05-15T03:59:19.295Z,224.00
2023-05-15T04:00:19.957Z,220.00
2023-05-15T04:01:19.984Z,228.00
2023-05-15T04:02:19.985Z,240.00
2023-05-15T04:03:19.436Z,232.00
2023-05-15T04:04:19.224Z,240.00
2023-05-15T04:05:21.228Z,268.00
2023-05-15T04:06:21.132Z,284.00
2023-05-15T04:07:21.158Z,316.00
2023-05-15T04:08:20.147Z,348.00
2023-05-15T04:09:19.862Z,392.00
2023-05-15T04:10:19.197Z,392.00
2023-05-15T04:11:19.166Z,400.00
2023-05-15T04:12:19.173Z,412.00
2023-05-15T04:13:19.124Z,404.00
2023-05-15T04:14:19.829Z,388.00
2023-05-15T04:15:19.808Z,372.00
2023-05-15T04:16:19.799Z,356.00
2023-05-15T04:17:19.158Z,364.00
2023-05-15T04:18:19.091Z,376.00
2023-05-15T04:19:19.848Z,412.00
2023-05-15T04:20:19.067Z,440.00
2023-05-15T04:21:19.714Z,436.00
2023-05-15T04:22:19.732Z,460.00
2023-05-15T04:23:19.028Z,452.00
2023-05-15T04:24:19.051Z,440.00
2023-05-15T04:25:19.693Z,432.00
2023-05-15T04:26:19.705Z,440.00
2023-05-15T04:27:18.994Z,464.00
2023-05-15T04:28:18.977Z,460.00
2023-05-15T04:29:18.964Z,452.00
2023-05-15T04:30:18.971Z,476.00
2023-05-15T04:31:18.977Z,496.00
2023-05-15T04:32:18.956Z,476.00
2023-05-15T04:33:18.935Z,460.00
2023-05-15T04:34:18.921Z,476.00
2023-05-15T04:35:19.860Z,516.00
2023-05-15T04:36:18.871Z,532.00
2023-05-15T04:37:18.876Z,592.00
2023-05-15T04:38:19.569Z,576.00
2023-05-15T04:39:19.530Z,552.00
2023-05-15T04:40:19.507Z,544.00
2023-05-15T04:41:19.571Z,532.00
2023-05-15T04:42:20.289Z,552.00
2023-05-15T04:43:18.795Z,604.00
2023-05-15T04:44:19.456Z,612.00
2023-05-15T04:45:18.825Z,604.00
2023-05-15T04:46:18.800Z,584.00
2023-05-15T04:47:18.817Z,592.00
2023-05-15T04:48:19.435Z,588.00
2023-05-15T04:49:19.406Z,592.00
2023-05-15T04:50:18.733Z,620.00
2023-05-15T04:51:18.785Z,676.00
2023-05-15T04:52:19.655Z,764.00
2023-05-15T04:53:18.713Z,868.00
2023-05-15T04:54:19.352Z,884.00
2023-05-15T04:55:19.356Z,828.00
2023-05-15T04:56:19.343Z,784.00
2023-05-15T04:57:18.655Z,800.00
2023-05-15T04:58:18.669Z,880.00
2023-05-15T04:59:19.309Z,952.00
2023-05-15T05:00:19.307Z,936.00
2023-05-15T05:01:19.317Z,912.00
2023-05-15T05:02:18.721Z,924.00
2023-05-15T05:03:19.318Z,1012.00
2023-05-15T05:04:19.254Z,1084.00
2023-05-15T05:05:19.509Z,1192.00
2023-05-15T05:06:19.236Z,1112.00
2023-05-15T05:07:18.563Z,1128.00
2023-05-15T05:08:19.198Z,1188.00
2023-05-15T05:09:19.200Z,1276.00
2023-05-15T05:10:18.509Z,1280.00
2023-05-15T05:11:18.503Z,1228.00
2023-05-15T05:12:19.151Z,1304.00
2023-05-15T05:13:19.161Z,1280.00
2023-05-15T05:14:18.462Z,1368.00
2023-05-15T05:15:19.139Z,1408.00
2023-05-15T05:16:19.218Z,1440.00
2023-05-15T05:17:19.095Z,1436.00
2023-05-15T05:18:19.110Z,1440.00
2023-05-15T05:19:18.498Z,1472.00
2023-05-15T05:20:18.400Z,1448.00
2023-05-15T05:21:18.418Z,1248.00
2023-05-15T05:22:19.050Z,1148.00
2023-05-15T05:23:19.050Z,1328.00
2023-05-15T05:24:18.371Z,1492.00
2023-05-15T05:25:18.349Z,1372.00
2023-05-15T05:26:18.361Z,1392.00
2023-05-15T05:27:19.012Z,1436.00
2023-05-15T05:28:19.004Z,1396.00
2023-05-15T05:29:18.310Z,1440.00
2023-05-15T05:30:18.969Z,1436.00
2023-05-15T05:31:18.319Z,1640.00
2023-05-15T05:32:18.985Z,1916.00
2023-05-15T05:33:20.213Z,2140.00
2023-05-15T05:34:18.248Z,2148.00
2023-05-15T05:35:18.910Z,2152.00
2023-05-15T05:36:18.232Z,2164.00
2023-05-15T05:37:18.919Z,1860.00
2023-05-15T05:38:18.887Z,1816.00
2023-05-15T05:39:18.884Z,1896.00
2023-05-15T05:40:18.859Z,2068.00
2023-05-15T05:41:18.187Z,2344.00
2023-05-15T05:42:19.118Z,2284.00
2023-05-15T05:43:19.098Z,2248.00
2023-05-15T05:44:18.164Z,2372.00
2023-05-15T05:45:18.795Z,2536.00
2023-05-15T05:46:18.874Z,2700.00
2023-05-15T05:47:18.798Z,2516.00
2023-05-15T05:48:18.102Z,2424.00
2023-05-15T05:49:18.757Z,2732.00
2023-05-15T05:50:18.760Z,2724.00
2023-05-15T05:51:18.750Z,2712.00
2023-05-15T05:52:18.089Z,2628.00
2023-05-15T05:53:18.041Z,2612.00
2023-05-15T05:54:18.708Z,2908.00
2023-05-15T05:55:18.022Z,2836.00
2023-05-15T05:56:18.085Z,2812.00
2023-05-15T05:57:18.016Z,2932.00
2023-05-15T05:58:24.850Z,2716.00
2023-05-15T05:59:18.994Z,2504.00
2023-05-15T06:00:17.974Z,2376.00
2023-05-15T06:01:18.657Z,2488.00
2023-05-15T06:02:18.701Z,2408.00
2023-05-15T06:03:18.668Z,2352.00
2023-05-15T06:04:18.630Z,2332.00
2023-05-15T06:05:18.593Z,2300.00
2023-05-15T06:06:17.899Z,2096.00
2023-05-15T06:07:18.575Z,1936.00
2023-05-15T06:08:17.912Z,1864.00
2023-05-15T06:09:17.862Z,2072.00
2023-05-15T06:10:18.805Z,2112.00
2023-05-15T06:11:18.535Z,2160.00
2023-05-15T06:12:19.221Z,2212.00
2023-05-15T06:13:18.786Z,2160.00
2023-05-15T06:14:19.441Z,2196.00
2023-05-15T06:15:17.808Z,2416.00
2023-05-15T06:16:17.804Z,2476.00
2023-05-15T06:17:18.511Z,2412.00
2023-05-15T06:18:17.777Z,2348.00
2023-05-15T06:19:17.877Z,2284.00
2023-05-15T06:20:18.428Z,2264.00
2023-05-15T06:21:17.754Z,2404.00
2023-05-15T06:22:18.395Z,2588.00
2023-05-15T06:23:17.711Z,2588.00
2023-05-15T06:24:18.391Z,2624.00
2023-05-15T06:25:18.379Z,2708.00
2023-05-15T06:26:18.351Z,2800.00
2023-05-15T06:27:18.338Z,2668.00
2023-05-15T06:28:18.347Z,2840.00
2023-05-15T06:29:18.332Z,3224.00
2023-05-15T06:30:17.636Z,3104.00
2023-05-15T06:31:18.330Z,3016.00
2023-05-15T06:32:18.299Z,2828.00
2023-05-15T06:33:18.355Z,2928.00
2023-05-15T06:34:18.285Z,2864.00
2023-05-15T06:35:17.581Z,2624.00
2023-05-15T06:36:17.597Z,2392.00
2023-05-15T06:37:18.247Z,2344.00
2023-05-15T06:38:18.260Z,2452.00
2023-05-15T06:39:19.505Z,2512.00
2023-05-15T06:40:17.536Z,2480.00
2023-05-15T06:41:17.524Z,2512.00
2023-05-15T06:42:18.477Z,2616.00
2023-05-15T06:43:17.513Z,2552.00
2023-05-15T06:44:18.175Z,2676.00
2023-05-15T06:45:18.185Z,2856.00
2023-05-15T06:46:17.511Z,2884.00
2023-05-15T06:47:17.457Z,2920.00
2023-05-15T06:48:18.191Z,2936.00
2023-05-15T06:49:18.144Z,3128.00
2023-05-15T06:50:18.100Z,3376.00
2023-05-15T06:51:17.408Z,3340.00
2023-05-15T06:52:17.393Z,3328.00
2023-05-15T06:53:17.403Z,3380.00
2023-05-15T06:54:18.051Z,3292.00
2023-05-15T06:55:18.047Z,3396.00
2023-05-15T06:56:18.058Z,3196.00
2023-05-15T06:57:17.343Z,3352.00
2023-05-15T06:58:17.334Z,3136.00
2023-05-15T06:59:17.993Z,3528.00
2023-05-15T07:00:18.006Z,3592.00
2023-05-15T07:01:18.005Z,3496.00
2023-05-15T07:02:17.363Z,3808.00
2023-05-15T07:03:17.316Z,4336.00
2023-05-15T07:04:17.330Z,4184.00
2023-05-15T07:05:17.309Z,4020.00
2023-05-15T07:06:17.251Z,3676.00
2023-05-15T07:07:17.245Z,3188.00
2023-05-15T07:08:17.894Z,3200.00
2023-05-15T07:09:17.877Z,3516.00
2023-05-15T07:10:17.223Z,3756.00
2023-05-15T07:11:17.199Z,4032.00
2023-05-15T07:12:19.122Z,4512.00
2023-05-15T07:13:17.836Z,5224.00
2023-05-15T07:14:17.890Z,4928.00
2023-05-15T07:15:17.160Z,4608.00
2023-05-15T07:16:18.567Z,4568.00
2023-05-15T07:17:17.906Z,5104.00
2023-05-15T07:18:17.814Z,4484.00
2023-05-15T07:19:17.840Z,4192.00
2023-05-15T07:20:17.089Z,3992.00
2023-05-15T07:21:17.083Z,3832.00
2023-05-15T07:22:17.112Z,4036.00
2023-05-15T07:23:17.082Z,3764.00
2023-05-15T07:24:17.732Z,3364.00
2023-05-15T07:25:17.749Z,3256.00
2023-05-15T07:26:27.582Z,3256.00
2023-05-15T07:27:18.686Z,3284.00
2023-05-15T07:28:17.018Z,2968.00
2023-05-15T07:29:17.680Z,2884.00
2023-05-15T07:30:17.707Z,2996.00
2023-05-15T07:31:17.706Z,2916.00
2023-05-15T07:32:17.147Z,2928.00
2023-05-15T07:33:16.955Z,2904.00
2023-05-15T07:34:17.901Z,2636.00
2023-05-15T07:35:16.952Z,2784.00
2023-05-15T07:36:17.591Z,2876.00
2023-05-15T07:37:17.183Z,2880.00
2023-05-15T07:38:17.600Z,2860.00
2023-05-15T07:39:17.600Z,2872.00
2023-05-15T07:40:17.558Z,2884.00
2023-05-15T07:41:17.529Z,2804.00
2023-05-15T07:42:17.549Z,2808.00
2023-05-15T07:43:16.844Z,2844.00
2023-05-15T07:44:17.525Z,2776.00
2023-05-15T07:45:16.887Z,2864.00
2023-05-15T07:46:17.525Z,2916.00
2023-05-15T07:47:17.488Z,3032.00
2023-05-15T07:48:17.471Z,3048.00
2023-05-15T07:49:16.837Z,3036.00
2023-05-15T07:50:17.446Z,3012.00
2023-05-15T07:51:16.784Z,2944.00
2023-05-15T07:52:17.467Z,3084.00
2023-05-15T07:53:17.416Z,2900.00
2023-05-15T07:54:16.730Z,2924.00
2023-05-15T07:55:17.381Z,3024.00
2023-05-15T07:56:17.716Z,3084.00
2023-05-15T07:57:17.383Z,3224.00
2023-05-15T07:58:17.375Z,3304.00
2023-05-15T07:59:17.379Z,3396.00
2023-05-15T08:00:17.324Z,3556.00
2023-05-15T08:01:16.644Z,3852.00
2023-05-15T08:02:16.690Z,4584.00
2023-05-15T08:03:17.416Z,5108.00
2023-05-15T08:04:17.369Z,5044.00
2023-05-15T08:05:17.576Z,4908.00
2023-05-15T08:06:17.550Z,5016.00
2023-05-15T08:07:17.285Z,4824.00
2023-05-15T08:08:17.257Z,4660.00
2023-05-15T08:09:17.234Z,4504.00
2023-05-15T08:10:17.511Z,4600.00
2023-05-15T08:11:17.246Z,4724.00
2023-05-15T08:12:17.229Z,4552.00
2023-05-15T08:13:17.204Z,4452.00
2023-05-15T08:14:17.213Z,4560.00
2023-05-15T08:15:17.454Z,4508.00
2023-05-15T08:16:17.505Z,4300.00
2023-05-15T08:17:17.444Z,4384.00
2023-05-15T08:18:17.132Z,4564.00
2023-05-15T08:19:17.448Z,4436.00
2023-05-15T08:20:17.125Z,4488.00
2023-05-15T08:21:17.394Z,4548.00
2023-05-15T08:22:17.138Z,4404.00
2023-05-15T08:23:18.632Z,4176.00
2023-05-15T08:24:17.405Z,4272.00
2023-05-15T08:25:17.072Z,4236.00
2023-05-15T08:26:17.063Z,4048.00
2023-05-15T08:27:16.379Z,3880.00
2023-05-15T08:28:16.388Z,3724.00
2023-05-15T08:29:17.033Z,3504.00
2023-05-15T08:30:17.018Z,3388.00
2023-05-15T08:31:17.036Z,3496.00
2023-05-15T08:32:16.976Z,3596.00
2023-05-15T08:33:16.973Z,3624.00
2023-05-15T08:34:16.989Z,3728.00
2023-05-15T08:35:16.966Z,3940.00
2023-05-15T08:36:17.022Z,4088.00
2023-05-15T08:37:16.931Z,4412.00
2023-05-15T08:38:17.250Z,4628.00
2023-05-15T08:39:17.162Z,4628.00
2023-05-15T08:40:18.619Z,4500.00
2023-05-15T08:41:18.147Z,4624.00
2023-05-15T08:42:16.871Z,4860.00
2023-05-15T08:43:16.900Z,5040.00
2023-05-15T08:44:17.132Z,5260.00
2023-05-15T08:45:17.138Z,5828.00
2023-05-15T08:46:17.155Z,6092.00
2023-05-15T08:47:17.096Z,6032.00
2023-05-15T08:48:17.667Z,5708.00
2023-05-15T08:49:16.899Z,5880.00
2023-05-15T08:50:16.175Z,5916.00
2023-05-15T08:51:16.145Z,5772.00
2023-05-15T08:52:17.073Z,5800.00
2023-05-15T08:53:16.796Z,5572.00
2023-05-15T08:54:16.778Z,5652.00
2023-05-15T08:55:16.777Z,5772.00
2023-05-15T08:56:17.028Z,5628.00
2023-05-15T08:57:16.728Z,5688.00
2023-05-15T08:58:16.718Z,5592.00
2023-05-15T08:59:16.705Z,5288.00
2023-05-15T09:00:16.677Z,5292.00
2023-05-15T09:01:16.769Z,5412.00
2023-05-15T09:02:16.669Z,5376.00
2023-05-15T09:03:16.889Z,5072.00
2023-05-15T09:04:16.933Z,5044.00
2023-05-15T09:05:16.627Z,5012.00
2023-05-15T09:06:16.627Z,5004.00
2023-05-15T09:07:16.877Z,5064.00
2023-05-15T09:08:16.874Z,4884.00
2023-05-15T09:09:16.855Z,4760.00
2023-05-15T09:10:16.572Z,4852.00
2023-05-15T09:11:16.574Z,5136.00
2023-05-15T09:12:16.803Z,5684.00
2023-05-15T09:13:16.814Z,6512.00
2023-05-15T09:14:16.808Z,6808.00
2023-05-15T09:15:16.544Z,6704.00
2023-05-15T09:16:15.867Z,6292.00
2023-05-15T09:17:16.507Z,5784.00
2023-05-15T09:18:15.843Z,5568.00
2023-05-15T09:19:16.603Z,5292.00
2023-05-15T09:20:16.489Z,5228.00
2023-05-15T09:21:16.463Z,5596.00
2023-05-15T09:22:16.731Z,7236.00
2023-05-15T09:23:16.432Z,7572.00
2023-05-15T09:24:16.690Z,7136.00
2023-05-15T09:25:16.649Z,7320.00
2023-05-15T09:26:16.412Z,7484.00
2023-05-15T09:27:16.401Z,8536.00
2023-05-15T09:28:16.650Z,9664.00
2023-05-15T09:29:18.291Z,10992.00
2023-05-15T09:30:16.368Z,11228.00
2023-05-15T09:31:16.502Z,10100.00
2023-05-15T09:32:16.410Z,9400.00
2023-05-15T09:33:16.615Z,11076.00
2023-05-15T09:34:16.330Z,11888.00
2023-05-15T09:35:16.327Z,12204.00
2023-05-15T09:36:15.618Z,11012.00
2023-05-15T09:37:16.275Z,11744.00
2023-05-15T09:38:16.262Z,12176.00
2023-05-15T09:39:15.563Z,11644.00
2023-05-15T09:40:16.261Z,11160.00
2023-05-15T09:41:16.261Z,11144.00
2023-05-15T09:42:16.224Z,11956.00
2023-05-15T09:43:16.230Z,10276.00
2023-05-15T09:44:15.529Z,10360.00
2023-05-15T09:45:15.550Z,10104.00
2023-05-15T09:46:15.635Z,10680.00
2023-05-15T09:47:15.588Z,10352.00
2023-05-15T09:48:16.297Z,8924.00
2023-05-15T09:49:15.477Z,9468.00
2023-05-15T09:50:16.151Z,9896.00
2023-05-15T09:51:15.473Z,9916.00
2023-05-15T09:52:15.445Z,9608.00
2023-05-15T09:53:21.383Z,9524.00
2023-05-15T09:54:17.328Z,9232.00
2023-05-15T09:55:16.099Z,9888.00
2023-05-15T09:56:15.444Z,9792.00
2023-05-15T09:57:15.396Z,9964.00
2023-05-15T09:58:16.065Z,10496.00
2023-05-15T09:59:15.388Z,9992.00
2023-05-15T10:00:16.026Z,10352.00
2023-05-15T10:01:16.118Z,9488.00
2023-05-15T10:02:16.017Z,8300.00
2023-05-15T10:03:16.010Z,7252.00
2023-05-15T10:04:15.316Z,6816.00
2023-05-15T10:05:16.011Z,6924.00
2023-05-15T10:06:16.073Z,7312.00
2023-05-15T10:07:15.274Z,7264.00
2023-05-15T10:08:15.290Z,7356.00
2023-05-15T10:09:15.947Z,7608.00
2023-05-15T10:10:15.914Z,8748.00
2023-05-15T10:11:15.938Z,10068.00
2023-05-15T10:12:15.907Z,11260.00
2023-05-15T10:13:15.220Z,10228.00
2023-05-15T10:14:15.233Z,11092.00
2023-05-15T10:15:15.214Z,11972.00
2023-05-15T10:16:15.935Z,10760.00
2023-05-15T10:17:15.856Z,12852.00
2023-05-15T10:18:15.853Z,10892.00
2023-05-15T10:19:15.883Z,12300.00
2023-05-15T10:20:15.833Z,12376.00
2023-05-15T10:21:15.820Z,11740.00
2023-05-15T10:22:15.803Z,10556.00
2023-05-15T10:23:15.788Z,9820.00
2023-05-15T10:24:15.776Z,10992.00
2023-05-15T10:25:15.089Z,13036.00
2023-05-15T10:26:15.074Z,11348.00
2023-05-15T10:27:15.056Z,12012.00
2023-05-15T10:28:15.726Z,12260.00
2023-05-15T10:29:15.706Z,13584.00
2023-05-15T10:30:15.051Z,35456.00
2023-05-15T10:31:15.083Z,55232.00
2023-05-15T10:32:15.697Z,54432.00
2023-05-15T10:33:15.070Z,60128.00
2023-05-15T10:34:14.996Z,60768.00
2023-05-15T10:35:15.682Z,60576.00
2023-05-15T10:36:15.649Z,61632.00
2023-05-15T10:37:14.944Z,63616.00
2023-05-15T10:38:14.964Z,64000.00
2023-05-15T10:39:15.030Z,58304.00
2023-05-15T10:40:14.937Z,33088.00
2023-05-15T10:41:17.372Z,8652.00
2023-05-15T10:42:15.567Z,6412.00
2023-05-15T10:43:14.920Z,6424.00
2023-05-15T10:44:15.565Z,6392.00
2023-05-15T10:45:15.555Z,6512.00
2023-05-15T10:46:15.546Z,6476.00
2023-05-15T10:47:15.600Z,6216.00
2023-05-15T10:48:14.860Z,5988.00
2023-05-15T10:49:15.506Z,5944.00
2023-05-15T10:50:14.814Z,6172.00
2023-05-15T10:51:14.804Z,6076.00
2023-05-15T10:52:15.457Z,6084.00
2023-05-15T10:53:15.464Z,6064.00
2023-05-15T10:54:15.453Z,6108.00
2023-05-15T10:55:14.780Z,6112.00
2023-05-15T10:56:14.795Z,5896.00
2023-05-15T10:57:16.697Z,5752.00
2023-05-15T10:58:14.725Z,6176.00
2023-05-15T10:59:14.712Z,6288.00
2023-05-15T11:00:14.744Z,5716.00
2023-05-15T11:01:14.727Z,5788.00
2023-05-15T11:02:15.395Z,5716.00
2023-05-15T11:03:15.561Z,5676.00
2023-05-15T11:04:15.383Z,5700.00
2023-05-15T11:05:15.338Z,5944.00
2023-05-15T11:06:15.305Z,5820.00
2023-05-15T11:07:14.625Z,5532.00
2023-05-15T11:08:15.337Z,5516.00
2023-05-15T11:09:15.321Z,5672.00
2023-05-15T11:10:15.258Z,5700.00
2023-05-15T11:11:15.257Z,5748.00
2023-05-15T11:12:15.261Z,5556.00
2023-05-15T11:13:15.247Z,5368.00
2023-05-15T11:14:15.249Z,5444.00
2023-05-15T11:15:14.567Z,5332.00
2023-05-15T11:16:15.274Z,5196.00
2023-05-15T11:17:17.292Z,5076.00
2023-05-15T11:18:14.577Z,4984.00
2023-05-15T11:19:15.209Z,5080.00
2023-05-15T11:20:15.162Z,5028.00
2023-05-15T11:21:14.473Z,5120.00
2023-05-15T11:22:14.493Z,5156.00
2023-05-15T11:23:15.143Z,5088.00
2023-05-15T11:24:15.105Z,5204.00
2023-05-15T11:25:14.456Z,5216.00
2023-05-15T11:26:15.101Z,5200.00
2023-05-15T11:27:15.094Z,5136.00
2023-05-15T11:28:15.083Z,5172.00
2023-05-15T11:29:15.055Z,5196.00
2023-05-15T11:30:14.437Z,5084.00
2023-05-15T11:31:15.055Z,5108.00
2023-05-15T11:32:15.048Z,5264.00
2023-05-15T11:33:14.422Z,5324.00
2023-05-15T11:34:14.996Z,5392.00
2023-05-15T11:35:14.323Z,5200.00
2023-05-15T11:36:14.999Z,5132.00
2023-05-15T11:37:14.988Z,4892.00
2023-05-15T11:38:14.287Z,4668.00
2023-05-15T11:39:14.968Z,4772.00
2023-05-15T11:40:14.952Z,4836.00
2023-05-15T11:41:14.245Z,4792.00
2023-05-15T11:42:14.245Z,4872.00
2023-05-15T11:43:14.898Z,4888.00
2023-05-15T11:44:14.909Z,4924.00
2023-05-15T11:45:14.895Z,4956.00
2023-05-15T11:46:14.323Z,4964.00
2023-05-15T11:47:14.871Z,5228.00
2023-05-15T11:48:14.234Z,5112.00
2023-05-15T11:49:14.849Z,5344.00
2023-05-15T11:50:14.156Z,5176.00
2023-05-15T11:51:14.160Z,5176.00
2023-05-15T11:52:14.801Z,5760.00
2023-05-15T11:53:14.804Z,5632.00
2023-05-15T11:54:14.821Z,5588.00
2023-05-15T11:55:14.787Z,5500.00
2023-05-15T11:56:14.122Z,5516.00
2023-05-15T11:57:14.101Z,5532.00
2023-05-15T11:58:14.762Z,5548.00
2023-05-15T11:59:14.750Z,5464.00
2023-05-15T12:00:14.737Z,5444.00
2023-05-15T12:01:14.721Z,5440.00
2023-05-15T12:02:14.704Z,5444.00
2023-05-15T12:03:14.208Z,5260.00
2023-05-15T12:04:14.888Z,5068.00
2023-05-15T12:05:14.693Z,4972.00
2023-05-15T12:06:14.656Z,4864.00
2023-05-15T12:07:14.642Z,4792.00
2023-05-15T12:08:14.646Z,4736.00
2023-05-15T12:09:13.952Z,4712.00
2023-05-15T12:10:13.939Z,4852.00
2023-05-15T12:11:14.606Z,4984.00
2023-05-15T12:12:14.661Z,5056.00
2023-05-15T12:13:13.905Z,5084.00
2023-05-15T12:14:14.589Z,5032.00
2023-05-15T12:15:13.882Z,4956.00
2023-05-15T12:16:13.913Z,4956.00
2023-05-15T12:17:14.553Z,4904.00
2023-05-15T12:18:14.556Z,4840.00
2023-05-15T12:19:14.542Z,4748.00
2023-05-15T12:20:13.840Z,4696.00
2023-05-15T12:21:13.840Z,4580.00
2023-05-15T12:22:14.504Z,4544.00
2023-05-15T12:23:14.487Z,4424.00
2023-05-15T12:24:13.815Z,4368.00
2023-05-15T12:25:14.451Z,4360.00
2023-05-15T12:26:14.459Z,4344.00